Time;durP1;ratioP1;P1;durP2;ratioP2;P2;SDS_P1;SDS_P2;PMS_P1;PMS_P2;Temp;Humidity;BMP_temperature;BMP_pressure;BME280_temperature;BME280_humidity;BME280_pressure;Samples;Min_cycle;Max_cycle;Signal;HPM_P1;HPM_P2
2021/06/12 00:01:12;;;;;;;5.37;4.80;;;;;;;;;;5003888;28;20424;-50
2021/06/12 00:03:38;;;;;;;4.87;4.47;;;;;;;;;;5003297;28;20400;-50
2021/06/12 00:06:05;;;;;;;5.63;4.50;;;;;;;;;;5002122;28;20455;-51
2021/06/12 00:08:31;;;;;;;5.83;4.10;;;;;;;;;;5001906;28;20440;-50
2021/06/12 00:10:57;;;;;;;5.93;4.70;;;;;;;;;;5001518;28;20434;-51
2021/06/12 00:13:23;;;;;;;8.03;5.43;;;;;;;;;;5001721;28;20440;-50
2021/06/12 00:15:49;;;;;;;6.27;4.67;;;;;;;;;;5001810;28;20783;-50
2021/06/12 00:18:15;;;;;;;5.87;5.27;;;;;;;;;;5001602;28;20455;-50
2021/06/12 00:20:41;;;;;;;5.43;4.80;;;;;;;;;;5000618;28;20403;-50
2021/06/12 00:23:08;;;;;;;6.40;5.20;;;;;;;;;;5001805;28;20411;-50
2021/06/12 00:25:37;;;;;;;7.60;5.10;;;;;;;;;;5001805;28;20400;-50
2021/06/12 00:28:03;;;;;;;5.30;4.80;;;;;;;;;;5001373;28;20872;-50
2021/06/12 00:30:30;;;;;;;6.73;6.00;;;;;;;;;;5002028;28;20777;-50
2021/06/12 00:32:56;;;;;;;5.33;4.70;;;;;;;;;;5000931;28;20416;-50
2021/06/12 00:35:23;;;;;;;6.97;4.73;;;;;;;;;;5000574;28;20431;-50
2021/06/12 00:37:49;;;;;;;7.73;5.00;;;;;;;;;;4999813;28;20460;-52
2021/06/12 00:40:15;;;;;;;8.43;5.70;;;;;;;;;;5000389;28;20404;-50
2021/06/12 00:42:42;;;;;;;6.07;5.47;;;;;;;;;;4999415;28;20444;-50
2021/06/12 00:45:10;;;;;;;7.10;5.77;;;;;;;;;;5001510;28;20419;-50
2021/06/12 00:47:36;;;;;;;6.10;5.50;;;;;;;;;;5000637;28;20419;-50
2021/06/12 00:50:02;;;;;;;6.40;5.80;;;;;;;;;;5000079;28;20940;-51
2021/06/12 00:52:28;;;;;;;5.73;5.10;;;;;;;;;;4999487;28;20478;-51
2021/06/12 00:54:54;;;;;;;7.70;6.20;;;;;;;;;;5000501;28;20887;-50
2021/06/12 00:57:21;;;;;;;6.50;5.70;;;;;;;;;;5001075;28;20408;-50
2021/06/12 00:59:47;;;;;;;6.10;5.57;;;;;;;;;;5000743;28;20404;-50
2021/06/12 01:02:13;;;;;;;6.50;5.90;;;;;;;;;;5000035;28;20427;-50
2021/06/12 01:04:39;;;;;;;7.90;5.37;;;;;;;;;;5000035;28;20437;-51
2021/06/12 01:07:05;;;;;;;7.27;6.03;;;;;;;;;;4998958;28;20775;-50
2021/06/12 01:09:31;;;;;;;6.43;4.43;;;;;;;;;;5000699;28;20435;-50
2021/06/12 01:11:57;;;;;;;10.43;5.80;;;;;;;;;;5000692;28;20435;-52
2021/06/12 01:14:25;;;;;;;7.60;5.80;;;;;;;;;;5000396;28;20415;-50
2021/06/12 01:16:53;;;;;;;9.80;5.43;;;;;;;;;;5000527;28;20447;-50
2021/06/12 01:19:34;;;;;;;8.90;5.47;;;;;;;;;;5000702;28;20464;-50
2021/06/12 01:22:02;;;;;;;7.90;6.30;;;;;;;;;;5000434;28;20394;-51
2021/06/12 01:24:48;;;;;;;5.73;5.23;;;;;;;;;;5001926;28;20379;-50
2021/06/12 01:27:13;;;;;;;6.17;5.57;;;;;;;;;;5001784;28;20447;-50
2021/06/12 01:29:42;;;;;;;8.07;5.33;;;;;;;;;;5002004;28;20408;-51
2021/06/12 01:32:10;;;;;;;6.50;5.90;;;;;;;;;;5001922;28;20796;-50
2021/06/12 01:34:37;;;;;;;6.70;5.83;;;;;;;;;;5001690;28;20427;-51
2021/06/12 01:37:04;;;;;;;5.23;4.73;;;;;;;;;;5002009;28;20469;-50
2021/06/12 01:39:32;;;;;;;6.77;6.07;;;;;;;;;;5001797;28;20557;-51
2021/06/12 01:41:59;;;;;;;8.53;6.13;;;;;;;;;;5002271;28;20475;-50
2021/06/12 01:44:27;;;;;;;8.17;6.67;;;;;;;;;;5000172;28;20498;-51
2021/06/12 01:46:56;;;;;;;7.60;6.50;;;;;;;;;;5000399;28;20404;-51
2021/06/12 01:49:22;;;;;;;7.23;6.37;;;;;;;;;;5000961;28;20455;-50
2021/06/12 01:51:49;;;;;;;12.17;9.10;;;;;;;;;;4999641;28;20431;-52
2021/06/12 01:54:16;;;;;;;8.20;5.87;;;;;;;;;;4999012;28;20431;-51
2021/06/12 01:56:43;;;;;;;7.60;6.13;;;;;;;;;;4998717;28;20411;-50
2021/06/12 01:59:10;;;;;;;8.30;5.90;;;;;;;;;;4997641;28;20448;-51
2021/06/12 02:01:37;;;;;;;10.23;6.43;;;;;;;;;;4980311;28;20463;-50
2021/06/12 02:04:04;;;;;;;10.20;6.80;;;;;;;;;;4997372;28;20379;-51
2021/06/12 02:06:34;;;;;;;10.80;6.80;;;;;;;;;;4997215;28;20919;-51
2021/06/12 02:09:01;;;;;;;7.43;6.33;;;;;;;;;;4995787;28;20454;-51
2021/06/12 02:11:27;;;;;;;9.17;6.90;;;;;;;;;;4996520;28;20428;-50
2021/06/12 02:13:53;;;;;;;9.60;6.70;;;;;;;;;;4997908;28;20408;-51
2021/06/12 02:16:23;;;;;;;6.67;5.93;;;;;;;;;;4997256;28;20411;-51
2021/06/12 02:19:02;;;;;;;9.60;6.73;;;;;;;;;;4980947;28;21005;-51
2021/06/12 02:21:28;;;;;;;8.03;6.47;;;;;;;;;;4999013;28;20420;-50
2021/06/12 02:23:54;;;;;;;10.63;6.47;;;;;;;;;;5001484;28;20396;-49
2021/06/12 02:26:22;;;;;;;9.00;5.80;;;;;;;;;;4984061;28;20439;-51
2021/06/12 02:28:49;;;;;;;9.13;6.80;;;;;;;;;;5001446;28;20603;-51
2021/06/12 02:31:17;;;;;;;5.80;5.20;;;;;;;;;;5001184;28;20439;-51
2021/06/12 02:33:45;;;;;;;14.80;6.60;;;;;;;;;;5000841;28;20495;-52
2021/06/12 02:36:11;;;;;;;8.03;5.73;;;;;;;;;;5001104;28;20411;-51
2021/06/12 02:38:37;;;;;;;486.33;174.57;;;;;;;;;;5000578;28;20486;-51
2021/06/12 02:41:03;;;;;;;7.53;5.90;;;;;;;;;;5001502;28;20454;-50
2021/06/12 02:43:29;;;;;;;318.37;43.93;;;;;;;;;;5000017;28;20931;-50
2021/06/12 02:45:55;;;;;;;10.30;4.87;;;;;;;;;;5000871;28;20434;-50
2021/06/12 02:48:22;;;;;;;6.67;5.73;;;;;;;;;;5001390;28;20407;-51
2021/06/12 02:50:50;;;;;;;7.67;5.07;;;;;;;;;;5001265;28;20428;-50
2021/06/12 02:53:16;;;;;;;12.47;5.50;;;;;;;;;;5000975;28;20435;-51
2021/06/12 02:55:47;;;;;;;11.00;6.23;;;;;;;;;;5000280;28;20415;-51
2021/06/12 02:58:14;;;;;;;8.20;6.03;;;;;;;;;;5000325;28;20447;-50
2021/06/12 03:00:41;;;;;;;1919.70;192.13;;;;;;;;;;5000072;28;20386;-50
2021/06/12 03:03:07;;;;;;;8.20;5.53;;;;;;;;;;5000307;28;20397;-53
2021/06/12 03:05:37;;;;;;;7.67;5.43;;;;;;;;;;4999362;28;21011;-50
2021/06/12 03:08:03;;;;;;;5.70;5.20;;;;;;;;;;5000148;28;20400;-50
2021/06/12 03:10:32;;;;;;;11.17;6.20;;;;;;;;;;4982679;28;20479;-50
2021/06/12 03:13:00;;;;;;;15.27;6.10;;;;;;;;;;4981335;28;20451;-51
2021/06/12 03:15:27;;;;;;;14.93;5.97;;;;;;;;;;4999903;28;20393;-52
2021/06/12 03:17:54;;;;;;;120.20;15.23;;;;;;;;;;4999783;28;20484;-51
2021/06/12 03:20:20;;;;;;;8.33;5.70;;;;;;;;;;4999199;28;20465;-50
2021/06/12 03:22:48;;;;;;;7.67;5.60;;;;;;;;;;4999891;28;20827;-51
2021/06/12 03:25:16;;;;;;;5.83;5.33;;;;;;;;;;5000205;28;20400;-50
2021/06/12 03:27:42;;;;;;;6.70;5.80;;;;;;;;;;5000124;28;20473;-50
2021/06/12 03:30:08;;;;;;;6.30;5.70;;;;;;;;;;5000651;28;20420;-51
2021/06/12 03:32:35;;;;;;;6.90;6.07;;;;;;;;;;5000277;28;20424;-51
2021/06/12 03:35:01;;;;;;;10.20;5.93;;;;;;;;;;5000954;28;20412;-51
2021/06/12 03:37:28;;;;;;;8.63;6.33;;;;;;;;;;5000101;28;20404;-52
2021/06/12 03:39:54;;;;;;;8.77;6.03;;;;;;;;;;4982687;28;20983;-52
2021/06/12 03:42:21;;;;;;;10.40;6.23;;;;;;;;;;4999618;28;20427;-51
2021/06/12 03:44:47;;;;;;;8.90;5.87;;;;;;;;;;4999998;28;20408;-51
2021/06/12 03:47:13;;;;;;;7.37;6.20;;;;;;;;;;4981785;28;20415;-51
2021/06/12 03:49:40;;;;;;;8.00;5.93;;;;;;;;;;5000866;28;20404;-50
2021/06/12 03:52:07;;;;;;;8.73;6.00;;;;;;;;;;5000611;28;20454;-51
2021/06/12 03:54:33;;;;;;;8.37;6.30;;;;;;;;;;5000538;28;20411;-51
2021/06/12 03:56:59;;;;;;;7.27;6.13;;;;;;;;;;5000402;28;20416;-50
2021/06/12 03:59:26;;;;;;;7.63;5.53;;;;;;;;;;5000694;28;20957;-51
2021/06/12 04:01:52;;;;;;;8.70;6.37;;;;;;;;;;5000356;28;20432;-50
2021/06/12 04:04:20;;;;;;;7.60;6.27;;;;;;;;;;5000829;28;20404;-50
2021/06/12 04:06:46;;;;;;;9.23;6.80;;;;;;;;;;5003333;28;20400;-50
2021/06/12 04:09:12;;;;;;;8.70;6.70;;;;;;;;;;5004772;28;20490;-51
2021/06/12 04:11:38;;;;;;;10.53;7.40;;;;;;;;;;5004079;28;20434;-51
2021/06/12 04:14:04;;;;;;;8.10;6.30;;;;;;;;;;5004796;28;20400;-52
2021/06/12 04:16:30;;;;;;;6.80;6.20;;;;;;;;;;5003987;28;20408;-50
2021/06/12 04:18:56;;;;;;;6.73;6.03;;;;;;;;;;5004875;28;20459;-50
2021/06/12 04:21:22;;;;;;;7.07;5.90;;;;;;;;;;5004429;28;20429;-51
2021/06/12 04:23:48;;;;;;;11.77;6.07;;;;;;;;;;5003724;28;20399;-50
2021/06/12 04:26:14;;;;;;;7.30;5.33;;;;;;;;;;5003966;28;20404;-50
2021/06/12 04:28:40;;;;;;;6.50;5.80;;;;;;;;;;5002837;28;20429;-51
2021/06/12 04:31:05;;;;;;;7.67;5.97;;;;;;;;;;5002389;28;20424;-51
2021/06/12 04:33:31;;;;;;;6.77;5.00;;;;;;;;;;5001926;28;20418;-50
2021/06/12 04:35:57;;;;;;;6.27;5.67;;;;;;;;;;5001860;28;20439;-51
2021/06/12 04:38:23;;;;;;;5.47;4.90;;;;;;;;;;5001547;28;20447;-50
2021/06/12 04:40:49;;;;;;;7.67;5.33;;;;;;;;;;5002201;28;20948;-49
2021/06/12 04:43:15;;;;;;;8.37;5.33;;;;;;;;;;5002499;28;20431;-50
2021/06/12 04:45:41;;;;;;;4.97;4.50;;;;;;;;;;5003488;28;20404;-49
2021/06/12 04:48:08;;;;;;;8.43;4.90;;;;;;;;;;5001807;28;20407;-50
2021/06/12 04:50:37;;;;;;;6.57;5.33;;;;;;;;;;5002408;28;20412;-51
2021/06/12 04:53:07;;;;;;;8.77;5.50;;;;;;;;;;5002586;28;20428;-52
2021/06/12 04:55:33;;;;;;;11.90;6.00;;;;;;;;;;5003291;28;20412;-51
2021/06/12 04:57:59;;;;;;;13.07;7.43;;;;;;;;;;4979570;28;20475;-49
2021/06/12 05:00:25;;;;;;;9.97;5.40;;;;;;;;;;4993668;28;20412;-49
2021/06/12 05:02:51;;;;;;;15.43;6.50;;;;;;;;;;4993437;28;20378;-50
2021/06/12 05:05:17;;;;;;;9.90;4.93;;;;;;;;;;4993836;28;20388;-50
2021/06/12 05:07:43;;;;;;;12.73;6.60;;;;;;;;;;4993046;28;20400;-49
2021/06/12 05:10:09;;;;;;;9.90;5.87;;;;;;;;;;4993669;28;20454;-49
2021/06/12 05:12:36;;;;;;;8.90;5.60;;;;;;;;;;4993232;28;20879;-49
2021/06/12 05:15:03;;;;;;;6.67;5.20;;;;;;;;;;4993272;28;20942;-49
2021/06/12 05:17:29;;;;;;;6.07;5.10;;;;;;;;;;4992001;28;20419;-50
2021/06/12 05:19:55;;;;;;;7.57;5.90;;;;;;;;;;4993233;28;20409;-50
2021/06/12 05:22:22;;;;;;;9.10;5.77;;;;;;;;;;4992822;28;20507;-49
2021/06/12 05:24:48;;;;;;;8.00;6.30;;;;;;;;;;4993340;28;20396;-50
2021/06/12 05:27:14;;;;;;;9.60;6.60;;;;;;;;;;4992772;28;20916;-50
2021/06/12 05:29:40;;;;;;;8.13;6.40;;;;;;;;;;4993337;28;20435;-52
2021/06/12 05:32:06;;;;;;;10.40;7.00;;;;;;;;;;4992654;28;20936;-51
2021/06/12 05:34:32;;;;;;;14.60;6.93;;;;;;;;;;4993294;28;20404;-51
2021/06/12 05:36:59;;;;;;;14.40;6.80;;;;;;;;;;4992616;28;20416;-51
2021/06/12 05:39:25;;;;;;;10.50;6.73;;;;;;;;;;4992635;28;20441;-50
2021/06/12 05:41:51;;;;;;;11.73;8.27;;;;;;;;;;4992812;28;20523;-50
2021/06/12 05:44:17;;;;;;;13.23;7.97;;;;;;;;;;4992595;28;20400;-50
2021/06/12 05:46:43;;;;;;;12.33;6.77;;;;;;;;;;4992500;28;20880;-50
2021/06/12 05:49:09;;;;;;;13.27;8.03;;;;;;;;;;4991224;28;20446;-52
2021/06/12 05:51:35;;;;;;;10.50;7.27;;;;;;;;;;4989822;28;20465;-52
2021/06/12 05:54:01;;;;;;;11.27;7.93;;;;;;;;;;4992183;28;20432;-51
2021/06/12 05:56:27;;;;;;;15.47;7.83;;;;;;;;;;4992560;28;20491;-51
2021/06/12 05:58:53;;;;;;;12.20;7.53;;;;;;;;;;4992218;28;20990;-52
2021/06/12 06:01:19;;;;;;;11.03;8.57;;;;;;;;;;4991858;28;20472;-51
2021/06/12 06:03:45;;;;;;;9.10;6.97;;;;;;;;;;4992107;28;20407;-50
2021/06/12 06:06:11;;;;;;;11.37;7.93;;;;;;;;;;4992159;28;20589;-51
2021/06/12 06:08:37;;;;;;;17.67;10.10;;;;;;;;;;4992124;28;20923;-50
2021/06/12 06:11:06;;;;;;;13.63;10.03;;;;;;;;;;4992181;28;20419;-52
2021/06/12 06:13:36;;;;;;;15.37;10.30;;;;;;;;;;4991962;28;20378;-49
2021/06/12 06:16:02;;;;;;;13.77;11.17;;;;;;;;;;4992020;28;20533;-50
2021/06/12 06:18:28;;;;;;;12.20;10.90;;;;;;;;;;4991865;28;21034;-49
2021/06/12 06:20:54;;;;;;;17.67;11.80;;;;;;;;;;4992034;28;20431;-51
2021/06/12 06:23:20;;;;;;;79.33;66.03;;;;;;;;;;4992026;28;20397;-51
2021/06/12 06:25:46;;;;;;;17.73;11.40;;;;;;;;;;4991965;28;20764;-51
2021/06/12 06:28:12;;;;;;;17.07;14.17;;;;;;;;;;4991862;28;20416;-52
2021/06/12 06:30:38;;;;;;;18.00;13.60;;;;;;;;;;4991592;28;20411;-53
2021/06/12 06:33:04;;;;;;;18.83;13.70;;;;;;;;;;4991818;28;20400;-52
2021/06/12 06:35:30;;;;;;;20.03;14.77;;;;;;;;;;4991776;28;20431;-52
2021/06/12 06:37:56;;;;;;;15.73;13.93;;;;;;;;;;4991628;28;21010;-52
2021/06/12 06:40:22;;;;;;;17.67;12.30;;;;;;;;;;4992029;28;20488;-50
2021/06/12 06:42:48;;;;;;;14.10;12.40;;;;;;;;;;4991715;28;20422;-49
2021/06/12 06:45:14;;;;;;;16.30;12.80;;;;;;;;;;4991615;28;20487;-50
2021/06/12 06:47:40;;;;;;;18.00;15.10;;;;;;;;;;4991425;28;20467;-50
2021/06/12 06:50:07;;;;;;;17.23;12.70;;;;;;;;;;4991812;28;20408;-50
2021/06/12 06:52:33;;;;;;;20.03;14.70;;;;;;;;;;4991393;28;20455;-52
2021/06/12 06:54:59;;;;;;;20.50;16.43;;;;;;;;;;4991393;28;20863;-52
2021/06/12 06:57:25;;;;;;;21.67;18.90;;;;;;;;;;4991719;28;20396;-51
2021/06/12 06:59:52;;;;;;;23.33;17.63;;;;;;;;;;4991784;28;20490;-50
2021/06/12 07:02:18;;;;;;;23.70;20.07;;;;;;;;;;4991258;28;20424;-50
2021/06/12 07:04:44;;;;;;;20.50;15.47;;;;;;;;;;4991560;28;20454;-51
2021/06/12 07:07:10;;;;;;;20.50;15.80;;;;;;;;;;4991278;28;20802;-51
2021/06/12 07:09:36;;;;;;;17.77;13.73;;;;;;;;;;4991839;28;20404;-50
2021/06/12 07:12:02;;;;;;;17.93;16.13;;;;;;;;;;4991333;28;20961;-50
2021/06/12 07:14:29;;;;;;;16.07;14.37;;;;;;;;;;4991211;28;20490;-50
2021/06/12 07:16:55;;;;;;;15.70;14.10;;;;;;;;;;4990883;28;20404;-50
2021/06/12 07:19:21;;;;;;;18.40;15.30;;;;;;;;;;4991208;28;20902;-52
2021/06/12 07:21:47;;;;;;;17.20;15.57;;;;;;;;;;4991107;28;20419;-52
2021/06/12 07:24:14;;;;;;;20.10;18.10;;;;;;;;;;4991193;28;20400;-50
2021/06/12 07:26:42;;;;;;;18.57;16.73;;;;;;;;;;4990877;28;20443;-50
2021/06/12 07:29:08;;;;;;;24.10;17.47;;;;;;;;;;4990120;28;20506;-50
2021/06/12 07:31:34;;;;;;;20.77;18.53;;;;;;;;;;4997962;28;20542;-50
2021/06/12 07:34:00;;;;;;;24.83;19.27;;;;;;;;;;5010655;28;20406;-50
2021/06/12 07:36:27;;;;;;;22.60;19.87;;;;;;;;;;5010345;28;20419;-49
2021/06/12 07:38:53;;;;;;;22.90;20.50;;;;;;;;;;5010546;28;20506;-50
2021/06/12 07:41:19;;;;;;;24.30;20.07;;;;;;;;;;5011762;28;20422;-50
2021/06/12 07:43:45;;;;;;;22.70;20.47;;;;;;;;;;5014430;28;20414;-50
2021/06/12 07:46:11;;;;;;;24.10;21.60;;;;;;;;;;5014132;28;20820;-50
2021/06/12 07:48:37;;;;;;;30.03;26.33;;;;;;;;;;5014448;28;20407;-50
2021/06/12 07:51:03;;;;;;;32.30;25.10;;;;;;;;;;5014216;28;20804;-51
2021/06/12 07:53:29;;;;;;;30.93;27.73;;;;;;;;;;5014505;28;20526;-50
2021/06/12 07:55:55;;;;;;;36.90;32.93;;;;;;;;;;5014093;28;20493;-51
2021/06/12 07:58:21;;;;;;;35.10;31.30;;;;;;;;;;5013974;28;20421;-49
2021/06/12 08:00:47;;;;;;;35.67;31.87;;;;;;;;;;5014542;28;20415;-51
2021/06/12 08:03:13;;;;;;;33.60;30.03;;;;;;;;;;5013918;28;20399;-52
2021/06/12 08:05:39;;;;;;;37.67;33.73;;;;;;;;;;5014278;28;20544;-51
2021/06/12 08:08:05;;;;;;;34.93;31.33;;;;;;;;;;5013780;28;20819;-50
2021/06/12 08:10:31;;;;;;;42.53;35.20;;;;;;;;;;5014068;28;20418;-50
2021/06/12 08:12:57;;;;;;;41.90;37.30;;;;;;;;;;5013736;28;20411;-49
2021/06/12 08:15:24;;;;;;;45.93;39.60;;;;;;;;;;5014029;28;20909;-49
2021/06/12 08:17:50;;;;;;;45.47;36.97;;;;;;;;;;5013707;28;20419;-50
2021/06/12 08:20:16;;;;;;;44.07;39.27;;;;;;;;;;5013868;28;20406;-49
2021/06/12 08:22:42;;;;;;;43.93;38.23;;;;;;;;;;5013444;28;20506;-52
2021/06/12 08:25:09;;;;;;;44.00;38.03;;;;;;;;;;5014164;28;20498;-50
2021/06/12 08:27:36;;;;;;;48.40;37.40;;;;;;;;;;5013382;28;20407;-50
2021/06/12 08:30:03;;;;;;;42.03;36.53;;;;;;;;;;5013615;28;20454;-50
2021/06/12 08:32:29;;;;;;;42.17;37.07;;;;;;;;;;5013578;28;20418;-51
2021/06/12 08:34:55;;;;;;;42.43;34.70;;;;;;;;;;5013671;28;20490;-50
2021/06/12 08:37:21;;;;;;;41.20;36.70;;;;;;;;;;5013783;28;20872;-50
2021/06/12 08:39:47;;;;;;;38.70;33.80;;;;;;;;;;5013322;28;20459;-50
2021/06/12 08:42:14;;;;;;;39.07;31.97;;;;;;;;;;5013187;28;20514;-50
2021/06/12 08:44:41;;;;;;;37.03;31.17;;;;;;;;;;5013283;28;20887;-51
2021/06/12 08:47:07;;;;;;;38.83;32.37;;;;;;;;;;5013421;28;20465;-52
2021/06/12 08:49:33;;;;;;;36.10;32.10;;;;;;;;;;5013284;28;20410;-52
2021/06/12 08:51:59;;;;;;;35.97;32.17;;;;;;;;;;5012637;28;20438;-52
2021/06/12 08:54:26;;;;;;;41.90;33.23;;;;;;;;;;5012622;28;20454;-53
2021/06/12 08:56:52;;;;;;;35.83;32.00;;;;;;;;;;5013202;28;20418;-50
2021/06/12 08:59:18;;;;;;;37.57;32.63;;;;;;;;;;5013583;28;20616;-50
2021/06/12 09:01:45;;;;;;;43.13;32.23;;;;;;;;;;5013108;28;20565;-50
2021/06/12 09:04:12;;;;;;;30.60;27.60;;;;;;;;;;5013115;28;20395;-52
2021/06/12 09:06:38;;;;;;;30.43;27.43;;;;;;;;;;5012857;28;20966;-50
2021/06/12 09:09:04;;;;;;;30.17;26.93;;;;;;;;;;5013074;28;20522;-50
2021/06/12 09:11:34;;;;;;;29.00;26.00;;;;;;;;;;5012600;28;20510;-51
2021/06/12 09:14:02;;;;;;;27.80;25.20;;;;;;;;;;5012764;28;20485;-51
2021/06/12 09:16:46;;;;;;;27.90;24.90;;;;;;;;;;5012625;28;20727;-50
2021/06/12 09:19:15;;;;;;;26.87;24.17;;;;;;;;;;5012749;28;20806;-51
2021/06/12 09:21:51;;;;;;;25.50;22.90;;;;;;;;;;5012528;28;20427;-49
2021/06/12 09:24:28;;;;;;;25.10;22.60;;;;;;;;;;5012651;28;20989;-50
2021/06/12 09:26:58;;;;;;;23.73;21.53;;;;;;;;;;5012242;28;20402;-50
2021/06/12 09:29:41;;;;;;;22.50;20.30;;;;;;;;;;5012491;28;20411;-50
2021/06/12 09:32:13;;;;;;;25.23;21.90;;;;;;;;;;5012366;28;20513;-51
2021/06/12 09:34:39;;;;;;;19.53;17.70;;;;;;;;;;5012556;28;20395;-51
2021/06/12 09:37:09;;;;;;;19.93;18.23;;;;;;;;;;5012284;28;20498;-51
2021/06/12 09:39:35;;;;;;;20.00;18.00;;;;;;;;;;5012605;28;20450;-52
2021/06/12 09:42:01;;;;;;;20.10;18.20;;;;;;;;;;5010058;28;20430;-49
2021/06/12 09:44:41;;;;;;;18.23;16.53;;;;;;;;;;4969045;28;20482;-49
2021/06/12 09:47:23;;;;;;;19.63;17.63;;;;;;;;;;4991999;28;20430;-51
2021/06/12 09:49:50;;;;;;;24.17;19.90;;;;;;;;;;4990878;28;20400;-51
2021/06/12 09:52:17;;;;;;;21.47;19.33;;;;;;;;;;4991756;28;20471;-51
2021/06/12 09:54:44;;;;;;;25.33;21.47;;;;;;;;;;4992262;28;20458;-52
2021/06/12 09:57:12;;;;;;;22.13;20.03;;;;;;;;;;4992195;28;20450;-50
2021/06/12 09:59:48;;;;;;;22.90;20.80;;;;;;;;;;4992183;28;20459;-50
2021/06/12 10:02:34;;;;;;;23.10;20.83;;;;;;;;;;4992501;28;20466;-50
2021/06/12 10:05:00;;;;;;;23.03;20.57;;;;;;;;;;4991856;28;20408;-51
2021/06/12 10:07:26;;;;;;;24.57;22.10;;;;;;;;;;4992143;28;20442;-50
2021/06/12 10:09:53;;;;;;;23.93;21.67;;;;;;;;;;4991901;28;20915;-51
2021/06/12 10:12:19;;;;;;;27.40;24.70;;;;;;;;;;4992052;28;20869;-50
2021/06/12 10:14:46;;;;;;;22.93;20.83;;;;;;;;;;4992001;28;20927;-51
2021/06/12 10:17:13;;;;;;;25.20;22.80;;;;;;;;;;4991970;28;20904;-49
2021/06/12 10:19:41;;;;;;;24.17;22.07;;;;;;;;;;4991859;28;20593;-51
2021/06/12 10:22:07;;;;;;;24.67;22.27;;;;;;;;;;4992015;28;20714;-50
2021/06/12 10:24:33;;;;;;;25.33;21.63;;;;;;;;;;4974498;28;20404;-50
2021/06/12 10:27:00;;;;;;;25.23;22.63;;;;;;;;;;4991803;28;20540;-50
2021/06/12 10:29:26;;;;;;;22.47;20.20;;;;;;;;;;4992034;28;20492;-51
2021/06/12 10:31:52;;;;;;;23.33;21.13;;;;;;;;;;4992201;28;20502;-52
2021/06/12 10:34:18;;;;;;;24.00;21.27;;;;;;;;;;4991619;28;20408;-51
2021/06/12 10:36:57;;;;;;;25.23;22.73;;;;;;;;;;4991514;28;20400;-51
2021/06/12 10:39:27;;;;;;;24.23;22.03;;;;;;;;;;4991855;28;20455;-50
2021/06/12 10:42:20;;;;;;;23.73;20.77;;;;;;;;;;4991583;28;20447;-50
2021/06/12 10:44:50;;;;;;;26.23;23.60;;;;;;;;;;4988693;28;20570;-51
2021/06/12 10:47:34;;;;;;;22.13;19.93;;;;;;;;;;4991331;28;20408;-50
2021/06/12 10:50:00;;;;;;;20.70;18.70;;;;;;;;;;4991589;28;20404;-51
2021/06/12 10:52:42;;;;;;;21.03;18.83;;;;;;;;;;4991486;28;20792;-50
2021/06/12 10:55:28;;;;;;;19.37;17.60;;;;;;;;;;4991723;28;20604;-50
2021/06/12 10:57:54;;;;;;;21.03;18.10;;;;;;;;;;4991892;28;20411;-50
2021/06/12 11:00:20;;;;;;;17.27;15.50;;;;;;;;;;4991785;28;20411;-50
2021/06/12 11:02:54;;;;;;;19.50;16.30;;;;;;;;;;4991587;28;20424;-50
2021/06/12 11:05:27;;;;;;;16.73;14.93;;;;;;;;;;4991664;28;20933;-50
2021/06/12 11:08:13;;;;;;;14.97;13.57;;;;;;;;;;4991081;28;20404;-52
2021/06/12 11:10:39;;;;;;;16.60;13.40;;;;;;;;;;4991330;28;20401;-50
2021/06/12 11:13:25;;;;;;;13.13;11.80;;;;;;;;;;4991205;28;20397;-50
2021/06/12 11:15:53;;;;;;;11.07;10.07;;;;;;;;;;4990309;28;20427;-50
2021/06/12 11:18:20;;;;;;;10.90;9.80;;;;;;;;;;4991112;28;20459;-51
2021/06/12 11:20:48;;;;;;;11.77;10.50;;;;;;;;;;4991305;28;20432;-50
2021/06/12 11:23:16;;;;;;;10.80;9.80;;;;;;;;;;4991363;28;20412;-50
2021/06/12 11:25:44;;;;;;;12.00;11.00;;;;;;;;;;4991286;28;20404;-50
2021/06/12 11:28:23;;;;;;;11.90;10.80;;;;;;;;;;4990981;28;20408;-50
2021/06/12 11:30:50;;;;;;;12.83;10.50;;;;;;;;;;4987474;28;20502;-51
2021/06/12 11:33:17;;;;;;;13.67;9.87;;;;;;;;;;4971095;28;20405;-50
2021/06/12 11:35:50;;;;;;;10.30;9.43;;;;;;;;;;4971984;28;20598;-50
2021/06/12 11:38:30;;;;;;;9.80;8.90;;;;;;;;;;4971614;28;20506;-50
2021/06/12 11:41:01;;;;;;;7.00;6.40;;;;;;;;;;4971558;28;20420;-51
2021/06/12 11:43:30;;;;;;;7.20;6.50;;;;;;;;;;4971312;28;20401;-50
2021/06/12 11:45:55;;;;;;;7.00;6.30;;;;;;;;;;4971446;28;20770;-50
2021/06/12 11:48:23;;;;;;;8.50;6.47;;;;;;;;;;4971652;28;20416;-51
2021/06/12 11:50:49;;;;;;;6.07;5.57;;;;;;;;;;4971544;28;20420;-50
2021/06/12 11:53:19;;;;;;;5.73;5.23;;;;;;;;;;4971282;28;20429;-50
2021/06/12 11:55:46;;;;;;;5.57;4.87;;;;;;;;;;4971505;28;20408;-50
2021/06/12 11:58:12;;;;;;;7.13;4.27;;;;;;;;;;4971131;28;20543;-52
2021/06/12 12:00:48;;;;;;;6.33;4.70;;;;;;;;;;4971285;28;20405;-50
2021/06/12 12:03:15;;;;;;;5.20;4.33;;;;;;;;;;4971573;28;20412;-51
2021/06/12 12:05:42;;;;;;;7.00;5.07;;;;;;;;;;4971317;28;20405;-50
2021/06/12 12:08:14;;;;;;;5.90;5.40;;;;;;;;;;4971183;28;20405;-50
2021/06/12 12:10:41;;;;;;;5.27;4.10;;;;;;;;;;4970942;28;20413;-50
2021/06/12 12:13:23;;;;;;;4.83;3.83;;;;;;;;;;4971325;28;20409;-50
2021/06/12 12:15:49;;;;;;;6.33;4.40;;;;;;;;;;4971326;28;20412;-54
2021/06/12 12:18:15;;;;;;;5.27;3.70;;;;;;;;;;4971665;28;21027;-50
2021/06/12 12:20:43;;;;;;;4.20;4.00;;;;;;;;;;4971127;28;20405;-50
2021/06/12 12:23:21;;;;;;;6.40;4.40;;;;;;;;;;4971123;28;20893;-50
2021/06/12 12:25:47;;;;;;;6.40;4.10;;;;;;;;;;4971140;28;20964;-50
2021/06/12 12:28:19;;;;;;;4.50;4.10;;;;;;;;;;4973638;28;20455;-50
2021/06/12 12:30:46;;;;;;;5.07;4.17;;;;;;;;;;4974600;28;20456;-50
2021/06/12 12:33:19;;;;;;;6.40;3.63;;;;;;;;;;4974606;28;20437;-51
2021/06/12 12:35:45;;;;;;;5.63;3.50;;;;;;;;;;4974356;28;20397;-50
2021/06/12 12:38:12;;;;;;;6.23;4.57;;;;;;;;;;4974561;28;20452;-50
2021/06/12 12:40:38;;;;;;;6.37;3.60;;;;;;;;;;4974405;28;20409;-50
2021/06/12 12:43:04;;;;;;;8.00;3.33;;;;;;;;;;4974341;28;20767;-49
2021/06/12 12:45:30;;;;;;;7.10;3.80;;;;;;;;;;4974443;28;20463;-49
2021/06/12 12:47:56;;;;;;;6.93;4.13;;;;;;;;;;4974006;28;20471;-50
2021/06/12 12:50:23;;;;;;;10.00;3.77;;;;;;;;;;4974175;28;20428;-50
2021/06/12 12:53:03;;;;;;;5.30;3.50;;;;;;;;;;4974058;28;20456;-51
2021/06/12 12:55:29;;;;;;;4.57;3.10;;;;;;;;;;4974346;28;20413;-50
2021/06/12 12:57:55;;;;;;;3.53;3.10;;;;;;;;;;4973955;28;20405;-50
2021/06/12 13:00:21;;;;;;;5.13;3.67;;;;;;;;;;4974293;28;20772;-50
2021/06/12 13:02:51;;;;;;;3.87;3.57;;;;;;;;;;4973909;28;20516;-50
2021/06/12 13:05:17;;;;;;;7.70;3.83;;;;;;;;;;4974320;28;20437;-50
2021/06/12 13:07:43;;;;;;;5.37;3.53;;;;;;;;;;4974006;28;20409;-50
2021/06/12 13:10:12;;;;;;;6.13;3.00;;;;;;;;;;4974467;28;20409;-50
2021/06/12 13:12:38;;;;;;;6.07;3.53;;;;;;;;;;4973921;28;20873;-50
2021/06/12 13:15:08;;;;;;;5.63;3.40;;;;;;;;;;4974115;28;20484;-50
2021/06/12 13:17:35;;;;;;;4.53;4.13;;;;;;;;;;4974031;28;20409;-50
2021/06/12 13:20:08;;;;;;;3.47;3.13;;;;;;;;;;4973778;28;20495;-49
2021/06/12 13:22:35;;;;;;;4.67;3.50;;;;;;;;;;4973696;28;20452;-52
2021/06/12 13:25:07;;;;;;;3.90;3.30;;;;;;;;;;4973697;28;20409;-50
2021/06/12 13:27:33;;;;;;;6.30;3.57;;;;;;;;;;4973936;28;20436;-50
2021/06/12 13:29:59;;;;;;;11.03;3.00;;;;;;;;;;4973471;28;20397;-50
2021/06/12 13:32:26;;;;;;;5.07;3.53;;;;;;;;;;4973421;28;20421;-49
2021/06/12 13:34:53;;;;;;;3.43;3.13;;;;;;;;;;4973702;28;20409;-51
2021/06/12 13:37:19;;;;;;;7.10;3.87;;;;;;;;;;4973411;28;20405;-50
2021/06/12 13:39:50;;;;;;;7.40;3.33;;;;;;;;;;4972649;28;20560;-50
2021/06/12 13:42:18;;;;;;;3.17;2.97;;;;;;;;;;4973184;28;20448;-51
2021/06/12 13:45:00;;;;;;;3.30;2.73;;;;;;;;;;4973212;28;20404;-50
2021/06/12 13:47:26;;;;;;;5.33;3.60;;;;;;;;;;4973394;28;20757;-50
2021/06/12 13:49:52;;;;;;;5.80;3.07;;;;;;;;;;4973383;28;20413;-49
2021/06/12 13:52:18;;;;;;;3.63;3.30;;;;;;;;;;4973152;28;20476;-50
2021/06/12 13:54:44;;;;;;;5.70;3.40;;;;;;;;;;4972927;28;20424;-51
2021/06/12 13:57:09;;;;;;;4.40;4.00;;;;;;;;;;4973039;28;20459;-50
2021/06/12 13:59:35;;;;;;;5.27;3.40;;;;;;;;;;4972825;28;20456;-51
2021/06/12 14:02:01;;;;;;;7.23;3.10;;;;;;;;;;4972997;28;20425;-50
2021/06/12 14:04:27;;;;;;;3.70;3.20;;;;;;;;;;4972951;28;20401;-51
2021/06/12 14:06:55;;;;;;;5.63;3.93;;;;;;;;;;4972588;28;20404;-50
2021/06/12 14:09:21;;;;;;;3.90;3.20;;;;;;;;;;4972814;28;20405;-51
2021/06/12 14:11:47;;;;;;;8.57;3.57;;;;;;;;;;4972622;28;20433;-51
2021/06/12 14:14:13;;;;;;;7.63;3.67;;;;;;;;;;4972915;28;20492;-51
2021/06/12 14:16:39;;;;;;;4.17;3.40;;;;;;;;;;4972444;28;20774;-52
2021/06/12 14:19:04;;;;;;;3.53;2.70;;;;;;;;;;4972500;28;20456;-50
2021/06/12 14:21:30;;;;;;;3.10;2.90;;;;;;;;;;4972415;28;20484;-50
2021/06/12 14:23:56;;;;;;;5.63;3.13;;;;;;;;;;4972531;28;20433;-50
2021/06/12 14:26:26;;;;;;;2.93;2.63;;;;;;;;;;4972358;28;20408;-51
2021/06/12 14:28:52;;;;;;;5.87;2.93;;;;;;;;;;4972709;28;20408;-52
2021/06/12 14:31:18;;;;;;;4.90;3.00;;;;;;;;;;4972462;28;20543;-52
2021/06/12 14:33:44;;;;;;;4.17;3.10;;;;;;;;;;4972445;28;20917;-50